createdAt,value
2018-05-27T00:02:28.949Z,100549
2018-05-27T00:04:57.607Z,100546
2018-05-27T00:07:25.854Z,100543
2018-05-27T00:09:55.110Z,100548
2018-05-27T00:12:23.806Z,100539
2018-05-27T00:14:53.127Z,100531
2018-05-27T00:17:23.768Z,100532
2018-05-27T00:19:52.082Z,100524
2018-05-27T00:22:20.332Z,100523
2018-05-27T00:24:48.599Z,100513
2018-05-27T00:27:17.043Z,100513
2018-05-27T00:29:45.247Z,100512
2018-05-27T00:32:15.069Z,100521
2018-05-27T00:34:43.272Z,100515
2018-05-27T00:37:11.508Z,100513
2018-05-27T00:39:39.715Z,100515
2018-05-27T00:42:09.675Z,100515
2018-05-27T00:44:37.887Z,100518
2018-05-27T00:47:06.338Z,100515
2018-05-27T00:49:34.575Z,100523
2018-05-27T00:52:02.797Z,100559
2018-05-27T00:54:31.748Z,100627
2018-05-27T00:57:00.857Z,100634
2018-05-27T00:59:29.099Z,100621
2018-05-27T01:01:59.838Z,100668
2018-05-27T01:04:29.725Z,100667
2018-05-27T01:06:57.937Z,100751
2018-05-27T01:09:27.034Z,100719
2018-05-27T01:11:55.878Z,100702
2018-05-27T01:14:24.071Z,100700
2018-05-27T01:16:54.124Z,100684
2018-05-27T01:19:22.354Z,100678
2018-05-27T01:21:50.588Z,100670
2018-05-27T01:24:18.797Z,100660
2018-05-27T01:26:47.041Z,100667
2018-05-27T01:31:50.896Z,100630
2018-05-27T01:34:19.118Z,100618
2018-05-27T01:36:47.325Z,100610
2018-05-27T01:39:16.448Z,100613
2018-05-27T01:41:44.681Z,100575
2018-05-27T01:44:12.890Z,100555
2018-05-27T01:46:41.118Z,100552
2018-05-27T01:49:09.312Z,100557
2018-05-27T01:51:37.502Z,100542
2018-05-27T01:54:05.888Z,100516
2018-05-27T01:56:34.076Z,100511
2018-05-27T01:59:03.184Z,100524
2018-05-27T02:01:31.388Z,100528
2018-05-27T02:03:59.596Z,100548
2018-05-27T02:06:28.534Z,100566
2018-05-27T02:08:57.545Z,100602
2018-05-27T02:11:26.546Z,100598
2018-05-27T02:13:57.250Z,100575
2018-05-27T02:16:25.517Z,100556
2018-05-27T02:18:58.315Z,100544
2018-05-27T02:21:27.074Z,100531
2018-05-27T02:23:55.333Z,100507
2018-05-27T02:26:23.544Z,100488
2018-05-27T02:28:51.853Z,100487
2018-05-27T02:31:20.063Z,100470
2018-05-27T02:33:48.316Z,100462
2018-05-27T02:36:16.588Z,100437
2018-05-27T02:38:46.367Z,100412
2018-05-27T02:41:14.630Z,100408
2018-05-27T02:43:42.859Z,100377
2018-05-27T02:46:11.077Z,100366
2018-05-27T02:48:39.273Z,100348
2018-05-27T02:51:08.254Z,100340
2018-05-27T02:53:36.606Z,100355
2018-05-27T02:56:04.874Z,100367
2018-05-27T02:58:33.082Z,100386
2018-05-27T03:01:02.356Z,100376
2018-05-27T03:03:30.832Z,100375
2018-05-27T03:05:59.059Z,100362
2018-05-27T03:08:28.925Z,100365
2018-05-27T03:10:57.130Z,100359
2018-05-27T03:13:25.342Z,100379
2018-05-27T03:15:53.576Z,100373
2018-05-27T03:18:22.838Z,100371
2018-05-27T03:20:51.090Z,100374
2018-05-27T03:23:20.546Z,100370
2018-05-27T03:25:49.196Z,100375
2018-05-27T03:28:17.437Z,100381
2018-05-27T03:30:46.236Z,100389
2018-05-27T03:33:14.428Z,100399
2018-05-27T03:35:42.636Z,100395
2018-05-27T03:38:10.870Z,100388
2018-05-27T03:40:40.013Z,100405
2018-05-27T03:43:08.281Z,100414
2018-05-27T03:45:37.405Z,100411
2018-05-27T03:48:06.613Z,100407
2018-05-27T03:50:35.605Z,100411
2018-05-27T03:53:04.003Z,100409
2018-05-27T03:55:32.282Z,100399
2018-05-27T03:58:01.333Z,100395
2018-05-27T04:00:31.055Z,100406
2018-05-27T04:02:59.874Z,100409
2018-05-27T04:08:42.245Z,100409
2018-05-27T04:11:10.516Z,100413
2018-05-27T04:13:38.802Z,100403
2018-05-27T04:16:07.109Z,100404
2018-05-27T04:18:35.696Z,100399
2018-05-27T04:21:04.855Z,100392
2018-05-27T04:23:33.161Z,100396
2018-05-27T04:26:01.426Z,100393
2018-05-27T04:28:29.870Z,100393
2018-05-27T04:31:02.179Z,100385
2018-05-27T04:33:30.473Z,100382
2018-05-27T04:35:58.713Z,100378
2018-05-27T04:38:26.959Z,100382
2018-05-27T04:40:55.509Z,100380
2018-05-27T04:43:24.404Z,100385
2018-05-27T04:45:52.610Z,100390
2018-05-27T04:48:20.849Z,100391
2018-05-27T04:50:49.946Z,100375
2018-05-27T04:53:18.254Z,100381
2018-05-27T04:55:46.509Z,100374
2018-05-27T04:58:15.480Z,100368
2018-05-27T05:00:44.058Z,100365
2018-05-27T05:03:12.377Z,100355
2018-05-27T05:05:40.611Z,100366
2018-05-27T05:08:09.992Z,100373
2018-05-27T05:10:39.556Z,100374
2018-05-27T05:13:09.047Z,100365
2018-05-27T05:15:38.829Z,100361
2018-05-27T05:18:07.116Z,100363
2018-05-27T05:20:35.409Z,100348
2018-05-27T05:23:04.909Z,100348
2018-05-27T05:25:35.106Z,100332
2018-05-27T05:28:04.399Z,100331
2018-05-27T05:30:32.729Z,100317
2018-05-27T05:33:02.101Z,100298
2018-05-27T05:35:31.429Z,100310
2018-05-27T05:38:01.626Z,100318
2018-05-27T05:40:30.878Z,100319
2018-05-27T05:43:01.059Z,100316
2018-05-27T05:45:29.518Z,100339
2018-05-27T05:47:58.645Z,100355
2018-05-27T05:50:26.929Z,100375
2018-05-27T05:52:55.954Z,100383
2018-05-27T05:55:24.713Z,100377
2018-05-27T05:57:52.963Z,100346
2018-05-27T06:00:21.445Z,100341
2018-05-27T06:02:50.765Z,100340
2018-05-27T06:05:19.782Z,100340
2018-05-27T06:07:48.024Z,100330
2018-05-27T06:10:19.422Z,100340
2018-05-27T06:12:48.559Z,100339
2018-05-27T06:15:16.778Z,100319
2018-05-27T06:17:45.055Z,100318
2018-05-27T06:20:13.278Z,100307
2018-05-27T06:22:41.489Z,100305
2018-05-27T06:25:09.744Z,100306
2018-05-27T06:27:40.188Z,100292
2018-05-27T06:30:09.185Z,100285
2018-05-27T06:32:38.211Z,100297
2018-05-27T06:35:06.735Z,100292
2018-05-27T06:37:35.718Z,100292
2018-05-27T06:40:03.956Z,100284
2018-05-27T06:42:32.178Z,100287
2018-05-27T06:45:00.546Z,100276
2018-05-27T06:47:28.730Z,100283
2018-05-27T06:49:56.985Z,100290
2018-05-27T06:52:25.915Z,100291
2018-05-27T06:54:54.117Z,100284
2018-05-27T06:57:22.400Z,100288
2018-05-27T06:59:50.677Z,100293
2018-05-27T07:02:20.013Z,100299
2018-05-27T07:04:49.086Z,100299
2018-05-27T07:07:19.193Z,100296
2018-05-27T07:09:47.434Z,100304
2018-05-27T07:12:17.846Z,100294
2018-05-27T07:14:46.969Z,100289
2018-05-27T07:17:15.223Z,100291
2018-05-27T07:19:44.570Z,100289
2018-05-27T07:22:14.061Z,100287
2018-05-27T07:24:49.484Z,100283
2018-05-27T07:27:35.270Z,100271
2018-05-27T07:30:03.868Z,100270
2018-05-27T07:32:33.899Z,100267
2018-05-27T07:35:04.340Z,100283
2018-05-27T07:37:32.780Z,100294
2018-05-27T07:40:05.282Z,100304
2018-05-27T07:42:33.674Z,100302
2018-05-27T07:45:06.096Z,100294
2018-05-27T07:47:34.555Z,100315
2018-05-27T07:50:03.289Z,100303
2018-05-27T07:52:31.548Z,100310
2018-05-27T07:55:00.765Z,100308
2018-05-27T07:57:29.608Z,100303
2018-05-27T07:59:57.877Z,100316
2018-05-27T08:02:28.012Z,100317
2018-05-27T08:04:56.635Z,100323
2018-05-27T08:07:25.827Z,100330
2018-05-27T08:09:54.198Z,100326
2018-05-27T08:12:26.928Z,100324
2018-05-27T08:14:56.093Z,100318
2018-05-27T08:17:28.247Z,100321
2018-05-27T08:19:58.901Z,100322
2018-05-27T08:22:28.574Z,100334
2018-05-27T08:24:56.876Z,100338
2018-05-27T08:27:30.610Z,100339
2018-05-27T08:29:59.097Z,100343
2018-05-27T08:32:31.707Z,100341
2018-05-27T08:35:00.243Z,100335
2018-05-27T08:37:28.518Z,100333
2018-05-27T08:39:58.857Z,100335
2018-05-27T08:42:28.656Z,100353
2018-05-27T08:44:57.689Z,100345
2018-05-27T08:47:26.389Z,100350
2018-05-27T08:49:55.570Z,100341
2018-05-27T08:52:23.771Z,100348
2018-05-27T08:54:57.005Z,100359
2018-05-27T08:57:30.586Z,100353
2018-05-27T09:00:00.330Z,100352
2018-05-27T09:02:29.681Z,100357
2018-05-27T09:04:58.853Z,100361
2018-05-27T09:07:27.134Z,100359
2018-05-27T09:09:57.255Z,100349
2018-05-27T09:12:27.868Z,100336
2018-05-27T09:14:59.278Z,100333
2018-05-27T09:17:28.879Z,100320
2018-05-27T09:20:04.535Z,100324
2018-05-27T09:22:38.262Z,100323
2018-05-27T09:27:51.575Z,100323
2018-05-27T09:30:31.584Z,100312
2018-05-27T09:33:01.578Z,100306
2018-05-27T09:35:34.703Z,100308
2018-05-27T09:38:05.583Z,100326
2018-05-27T09:40:33.823Z,100323
2018-05-27T09:43:02.988Z,100325
2018-05-27T09:45:32.145Z,100316
2018-05-27T09:48:06.987Z,100322
2018-05-27T09:50:46.002Z,100307
2018-05-27T09:53:14.370Z,100305
2018-05-27T09:55:43.484Z,100299
2018-05-27T09:58:11.763Z,100292
2018-05-27T10:01:04.536Z,100291
2018-05-27T10:03:33.975Z,100288
2018-05-27T10:06:02.684Z,100286
2018-05-27T10:08:30.934Z,100282
2018-05-27T10:10:59.762Z,100287
2018-05-27T10:13:28.831Z,100287
2018-05-27T10:15:57.270Z,100288
2018-05-27T10:20:59.828Z,100294
2018-05-27T10:23:28.065Z,100294
2018-05-27T10:25:56.341Z,100288
2018-05-27T10:28:24.671Z,100288
2018-05-27T10:30:52.927Z,100294
2018-05-27T10:33:27.868Z,100308
2018-05-27T10:35:56.915Z,100298
2018-05-27T10:38:27.710Z,100293
2018-05-27T10:40:58.496Z,100291
2018-05-27T10:43:26.979Z,100288
2018-05-27T10:45:55.200Z,100280
2018-05-27T10:48:26.446Z,100282
2018-05-27T10:50:54.672Z,100279
2018-05-27T10:53:23.182Z,100284
2018-05-27T10:55:53.989Z,100284
2018-05-27T10:58:22.519Z,100283
2018-05-27T11:00:51.588Z,100278
2018-05-27T11:03:26.975Z,100267
2018-05-27T11:05:55.261Z,100286
2018-05-27T11:08:23.484Z,100272
2018-05-27T11:10:52.715Z,100278
2018-05-27T11:13:22.181Z,100276
2018-05-27T11:15:51.344Z,100272
2018-05-27T11:18:19.596Z,100274
2018-05-27T11:20:48.328Z,100267
2018-05-27T11:23:17.398Z,100268
2018-05-27T11:25:45.853Z,100267
2018-05-27T11:28:14.948Z,100261
2018-05-27T11:30:43.491Z,100268
2018-05-27T11:33:12.695Z,100271
2018-05-27T11:35:40.878Z,100269
2018-05-27T11:38:09.664Z,100275
2018-05-27T11:40:38.803Z,100273
2018-05-27T11:43:07.150Z,100272
2018-05-27T11:45:35.358Z,100272
2018-05-27T11:48:04.828Z,100260
2018-05-27T11:50:33.209Z,100262
2018-05-27T11:53:01.479Z,100254
2018-05-27T11:55:30.674Z,100257
2018-05-27T11:58:00.026Z,100244
2018-05-27T12:00:28.440Z,100250
2018-05-27T12:02:57.264Z,100250
2018-05-27T12:05:26.330Z,100247
2018-05-27T12:07:54.861Z,100246
2018-05-27T12:10:23.101Z,100249
2018-05-27T12:12:52.187Z,100255
2018-05-27T12:15:20.392Z,100261
2018-05-27T12:17:48.601Z,100259
2018-05-27T12:20:16.804Z,100262
2018-05-27T12:22:44.981Z,100261
2018-05-27T12:25:13.296Z,100258
2018-05-27T12:27:41.514Z,100261
2018-05-27T12:30:09.721Z,100265
2018-05-27T12:32:38.870Z,100260
2018-05-27T12:35:07.094Z,100251
2018-05-27T12:37:35.321Z,100257
2018-05-27T12:40:06.251Z,100252
2018-05-27T12:42:34.577Z,100248
2018-05-27T12:45:02.810Z,100243
2018-05-27T12:47:31.037Z,100235
2018-05-27T12:49:59.270Z,100231
2018-05-27T12:52:27.849Z,100223
2018-05-27T12:54:57.355Z,100217
2018-05-27T12:57:25.849Z,100215
2018-05-27T12:59:54.356Z,100212
2018-05-27T13:02:22.708Z,100219
2018-05-27T13:04:50.963Z,100218
2018-05-27T13:07:19.954Z,100212
2018-05-27T13:09:48.795Z,100212
2018-05-27T13:12:17.985Z,100202
2018-05-27T13:14:46.207Z,100197
2018-05-27T13:17:14.431Z,100195
2018-05-27T13:19:42.998Z,100194
2018-05-27T13:22:12.145Z,100196
2018-05-27T13:24:41.157Z,100196
2018-05-27T13:27:09.422Z,100197
2018-05-27T13:29:37.651Z,100190
2018-05-27T13:32:05.909Z,100192
2018-05-27T13:34:34.949Z,100182
2018-05-27T13:37:03.375Z,100188
2018-05-27T13:39:33.260Z,100185
2018-05-27T13:42:03.763Z,100182
2018-05-27T13:44:33.095Z,100185
2018-05-27T13:47:02.294Z,100189
2018-05-27T13:49:31.073Z,100186
2018-05-27T13:51:59.386Z,100181
2018-05-27T13:54:27.597Z,100183
2018-05-27T13:56:56.929Z,100181
2018-05-27T13:59:25.182Z,100107
2018-05-27T14:01:57.838Z,100180
2018-05-27T14:04:26.030Z,100185
2018-05-27T14:06:54.235Z,100183
2018-05-27T14:09:22.605Z,100183
2018-05-27T14:11:51.329Z,100185
2018-05-27T14:14:20.165Z,100189
2018-05-27T14:16:49.068Z,100188
2018-05-27T14:19:17.249Z,100179
2018-05-27T14:21:45.469Z,100189
2018-05-27T14:24:13.779Z,100178
2018-05-27T14:26:43.000Z,100169
2018-05-27T14:29:12.256Z,100170
2018-05-27T14:31:41.481Z,100165
2018-05-27T14:34:10.027Z,100167
2018-05-27T14:36:39.184Z,100167
2018-05-27T14:39:07.454Z,100156
2018-05-27T14:41:35.735Z,100151
2018-05-27T14:44:05.111Z,100157
2018-05-27T14:49:11.172Z,100137
2018-05-27T14:51:40.292Z,100121
2018-05-27T14:54:09.687Z,100126
2018-05-27T14:56:39.573Z,100122
2018-05-27T14:59:07.983Z,100109
2018-05-27T15:01:36.306Z,100106
2018-05-27T15:04:05.620Z,100113
2018-05-27T15:06:34.070Z,100130
2018-05-27T15:09:03.373Z,100131
2018-05-27T15:11:31.614Z,100122
2018-05-27T15:13:59.821Z,100120
2018-05-27T15:16:28.053Z,100131
2018-05-27T15:18:57.042Z,100147
2018-05-27T15:21:26.191Z,100149
2018-05-27T15:23:54.421Z,100145
2018-05-27T15:26:23.390Z,100146
2018-05-27T15:28:52.729Z,100138
2018-05-27T15:31:20.957Z,100133
2018-05-27T15:33:49.509Z,100137
2018-05-27T15:36:19.049Z,100140
2018-05-27T15:38:47.243Z,100124
2018-05-27T15:41:16.297Z,100112
2018-05-27T15:43:44.542Z,100117
2018-05-27T15:46:12.747Z,100123
2018-05-27T15:48:40.984Z,100124
2018-05-27T15:51:10.001Z,100119
2018-05-27T15:53:38.789Z,100117
2018-05-27T15:56:07.551Z,100120
2018-05-27T15:58:36.129Z,100117
2018-05-27T16:01:04.400Z,100105
2018-05-27T16:03:34.420Z,100109
2018-05-27T16:06:02.634Z,100116
2018-05-27T16:08:30.848Z,100110
2018-05-27T16:10:59.050Z,100116
2018-05-27T16:13:27.276Z,100127
2018-05-27T16:15:55.481Z,100137
2018-05-27T16:18:23.691Z,100155
2018-05-27T16:20:51.918Z,100168
2018-05-27T16:23:20.399Z,100170
2018-05-27T16:25:49.238Z,100174
2018-05-27T16:28:17.463Z,100183
2018-05-27T16:30:45.720Z,100174
2018-05-27T16:33:13.931Z,100152
2018-05-27T16:35:42.142Z,100155
2018-05-27T16:38:10.342Z,100134
2018-05-27T16:40:39.085Z,100142
2018-05-27T16:43:07.330Z,100154
2018-05-27T16:45:35.564Z,100157
2018-05-27T16:48:03.812Z,100162
2018-05-27T16:50:32.023Z,100160
2018-05-27T16:53:00.618Z,100172
2018-05-27T16:55:29.434Z,100171
2018-05-27T16:57:57.700Z,100179
2018-05-27T17:00:26.674Z,100203
2018-05-27T17:02:56.322Z,100214
2018-05-27T17:05:25.502Z,100208
2018-05-27T17:07:54.133Z,100200
2018-05-27T17:10:25.109Z,100202
2018-05-27T17:12:54.242Z,100210
2018-05-27T17:15:22.470Z,100205
2018-05-27T17:17:53.228Z,100208
2018-05-27T17:20:21.690Z,100209
2018-05-27T17:22:50.266Z,100213
2018-05-27T17:25:18.526Z,100213
2018-05-27T17:27:47.711Z,100206
2018-05-27T17:30:15.900Z,100218
2018-05-27T17:32:44.105Z,100235
2018-05-27T17:35:12.338Z,100249
2018-05-27T17:37:40.534Z,100271
2018-05-27T17:40:08.909Z,100286
2018-05-27T17:42:38.219Z,100287
2018-05-27T17:45:07.139Z,100281
2018-05-27T17:47:36.104Z,100270
2018-05-27T17:50:04.346Z,100280
2018-05-27T17:52:32.614Z,100274
2018-05-27T17:55:00.892Z,100275
2018-05-27T17:57:29.105Z,100281
2018-05-27T17:59:57.355Z,100284
2018-05-27T18:02:25.625Z,100290
2018-05-27T18:04:55.001Z,100299
2018-05-27T18:07:23.231Z,100296
2018-05-27T18:09:52.194Z,100281
2018-05-27T18:12:20.595Z,100288
2018-05-27T18:14:48.829Z,100287
2018-05-27T18:17:17.056Z,100298
2018-05-27T18:19:45.283Z,100308
2018-05-27T18:22:13.533Z,100287
2018-05-27T18:24:41.848Z,100281
2018-05-27T18:27:10.048Z,100282
2018-05-27T18:29:38.301Z,100289
2018-05-27T18:32:06.629Z,100283
2018-05-27T18:34:34.829Z,100262
2018-05-27T18:37:03.058Z,100264
2018-05-27T18:39:31.362Z,100265
2018-05-27T18:42:00.381Z,100271
2018-05-27T18:44:29.600Z,100258
2018-05-27T18:46:57.845Z,100266
2018-05-27T18:49:26.879Z,100259
2018-05-27T18:51:55.146Z,100258
2018-05-27T18:54:23.366Z,100258
2018-05-27T18:56:51.561Z,100248
2018-05-27T18:59:19.778Z,100243
2018-05-27T19:01:48.705Z,100251
2018-05-27T19:04:16.959Z,100261
2018-05-27T19:06:45.198Z,100260
2018-05-27T19:09:13.419Z,100266
2018-05-27T19:11:41.609Z,100262
2018-05-27T19:14:09.831Z,100272
2018-05-27T19:16:38.086Z,100266
2018-05-27T19:19:06.978Z,100257
2018-05-27T19:21:35.515Z,100260
2018-05-27T19:24:03.732Z,100258
2018-05-27T19:26:32.107Z,100257
2018-05-27T19:29:00.329Z,100268
2018-05-27T19:31:28.621Z,100268
2018-05-27T19:33:57.578Z,100274
2018-05-27T19:36:25.788Z,100278
2018-05-27T19:38:54.007Z,100267
2018-05-27T19:41:22.208Z,100268
2018-05-27T19:43:50.397Z,100264
2018-05-27T19:46:19.412Z,100269
2018-05-27T19:48:47.641Z,100281
2018-05-27T19:51:15.903Z,100286
2018-05-27T19:53:44.148Z,100281
2018-05-27T19:56:13.155Z,100286
2018-05-27T19:58:41.355Z,100296
2018-05-27T20:01:09.630Z,100298
2018-05-27T20:03:37.860Z,100305
2018-05-27T20:06:06.069Z,100307
2018-05-27T20:08:34.354Z,100303
2018-05-27T20:11:02.588Z,100306
2018-05-27T20:13:31.490Z,100306
2018-05-27T20:15:59.748Z,100316
2018-05-27T20:18:27.956Z,100326
2018-05-27T20:20:56.161Z,100323
2018-05-27T20:23:24.385Z,100331
2018-05-27T20:25:52.587Z,100335
2018-05-27T20:28:20.844Z,100344
2018-05-27T20:30:49.154Z,100346
2018-05-27T20:33:18.902Z,100338
2018-05-27T20:35:47.105Z,100337
2018-05-27T20:38:15.334Z,100337
2018-05-27T20:40:43.537Z,100324
2018-05-27T20:43:11.796Z,100319
2018-05-27T20:45:40.052Z,100315
2018-05-27T20:48:09.084Z,100315
2018-05-27T20:50:37.342Z,100310
2018-05-27T20:53:05.571Z,100320
2018-05-27T20:55:34.700Z,100322
2018-05-27T20:58:03.116Z,100332
2018-05-27T21:00:31.373Z,100342
2018-05-27T21:03:00.498Z,100341
2018-05-27T21:05:28.743Z,100330
2018-05-27T21:07:57.017Z,100333
2018-05-27T21:10:25.214Z,100333
2018-05-27T21:12:53.501Z,100322
2018-05-27T21:15:22.552Z,100316
2018-05-27T21:17:50.796Z,100313
2018-05-27T21:20:19.098Z,100309
2018-05-27T21:22:47.352Z,100314
2018-05-27T21:25:15.576Z,100318
2018-05-27T21:27:43.844Z,100318
2018-05-27T21:30:12.078Z,100320
2018-05-27T21:32:41.033Z,100321
2018-05-27T21:35:09.268Z,100326
2018-05-27T21:37:37.671Z,100333
2018-05-27T21:40:05.896Z,100337
2018-05-27T21:42:35.535Z,100331
2018-05-27T21:45:03.975Z,100335
2018-05-27T21:47:32.205Z,100344
2018-05-27T21:50:01.149Z,100341
2018-05-27T21:52:30.217Z,100341
2018-05-27T21:54:58.449Z,100343
2018-05-27T21:57:26.706Z,100350
2018-05-27T21:59:55.199Z,100341
2018-05-27T22:02:23.681Z,100335
2018-05-27T22:04:53.700Z,100326
2018-05-27T22:07:22.147Z,100334
2018-05-27T22:09:50.358Z,100311
2018-05-27T22:12:18.566Z,100331
2018-05-27T22:14:46.818Z,100321
2018-05-27T22:17:15.832Z,100330
2018-05-27T22:19:44.903Z,100332
2018-05-27T22:22:14.154Z,100332
2018-05-27T22:24:43.248Z,100336
2018-05-27T22:27:11.538Z,100318
2018-05-27T22:29:39.780Z,100332
2018-05-27T22:32:08.533Z,100330
2018-05-27T22:34:37.769Z,100335
2018-05-27T22:37:07.262Z,100332
2018-05-27T22:39:35.505Z,100330
2018-05-27T22:42:03.750Z,100323
2018-05-27T22:44:32.461Z,100330
2018-05-27T22:47:00.688Z,100321
2018-05-27T22:49:29.956Z,100324
2018-05-27T22:51:58.193Z,100337
2018-05-27T22:54:26.437Z,100342
2018-05-27T22:56:54.671Z,100345
2018-05-27T22:59:23.746Z,100344
2018-05-27T23:01:52.385Z,100343
2018-05-27T23:04:20.616Z,100348
2018-05-27T23:06:50.129Z,100341
2018-05-27T23:09:18.334Z,100349
2018-05-27T23:11:47.117Z,100352
2018-05-27T23:14:15.899Z,100356
2018-05-27T23:16:44.197Z,100370
2018-05-27T23:19:12.426Z,100367
2018-05-27T23:21:41.394Z,100379
2018-05-27T23:24:09.640Z,100374
2018-05-27T23:26:37.857Z,100381
2018-05-27T23:29:06.232Z,100393
2018-05-27T23:31:34.419Z,100401
2018-05-27T23:34:03.032Z,100400
2018-05-27T23:36:31.947Z,100405
2018-05-27T23:39:01.504Z,100408
2018-05-27T23:41:29.754Z,100405
2018-05-27T23:43:57.985Z,100410
2018-05-27T23:46:26.180Z,100415
2018-05-27T23:48:54.454Z,100416
2018-05-27T23:51:22.634Z,100423
2018-05-27T23:53:51.995Z,100425
2018-05-27T23:56:20.248Z,100425
2018-05-27T23:58:48.490Z,100418
